Time;durP1;ratioP1;P1;durP2;ratioP2;P2;SDS_P1;SDS_P2;PMS_P1;PMS_P2;Temp;Humidity;BMP_temperature;BMP_pressure;BME280_temperature;BME280_humidity;BME280_pressure;Samples;Min_cycle;Max_cycle;Signal;HPM_P1;HPM_P2
2023/04/02 00:01:00;;;;;;;5.72;3.00;;;4.40;99.90;;;;;;5083247;28;20111;-71
2023/04/02 00:03:52;;;;;;;5.28;2.15;;;4.30;99.90;;;;;;5088652;28;20056;-68
2023/04/02 00:06:31;;;;;;;6.43;2.70;;;4.20;99.90;;;;;;5076748;28;20172;-70
2023/04/02 00:09:16;;;;;;;5.43;2.30;;;4.10;99.90;;;;;;5079810;28;20713;-70
2023/04/02 00:11:53;;;;;;;5.68;2.50;;;4.00;99.90;;;;;;5076376;28;20040;-69
2023/04/02 00:14:32;;;;;;;6.90;2.72;;;3.90;99.90;;;;;;5073769;28;20392;-70
2023/04/02 00:17:00;;;;;;;6.30;2.53;;;3.80;99.90;;;;;;5073025;28;20044;-70
2023/04/02 00:19:59;;;;;;;4.97;2.10;;;3.80;99.90;;;;;;5080990;28;20044;-70
2023/04/02 00:22:30;;;;;;;8.52;3.13;;;3.70;99.90;;;;;;5076467;28;20032;-70
2023/04/02 00:24:59;;;;;;;7.55;2.92;;;3.70;99.90;;;;;;5073260;28;20388;-70
2023/04/02 00:27:25;;;;;;;5.40;2.35;;;3.60;99.90;;;;;;5072373;28;20037;-70
2023/04/02 00:29:55;;;;;;;5.20;2.28;;;3.60;99.90;;;;;;5051692;28;20350;-70
2023/04/02 00:32:25;;;;;;;6.88;2.30;;;3.50;99.90;;;;;;5074511;28;20036;-68
2023/04/02 00:34:51;;;;;;;4.53;2.08;;;3.50;99.90;;;;;;5073010;28;20048;-70
2023/04/02 00:37:22;;;;;;;5.50;2.40;;;3.40;99.90;;;;;;5076994;28;20039;-70
2023/04/02 00:39:51;;;;;;;6.47;2.40;;;3.40;99.90;;;;;;5060796;28;20036;-71
2023/04/02 00:42:18;;;;;;;4.13;2.33;;;3.40;99.90;;;;;;5071591;28;20094;-68
2023/04/02 00:44:44;;;;;;;;;;;3.40;99.90;;;;;;5055470;28;20083;-69
2023/04/02 00:47:26;;;;;;;5.03;2.50;;;3.40;99.90;;;;;;5072293;28;20283;-69
2023/04/02 00:50:10;;;;;;;6.22;2.30;;;3.30;99.90;;;;;;5071687;28;20119;-69
2023/04/02 00:52:37;;;;;;;5.13;2.50;;;3.30;99.90;;;;;;5071967;28;20364;-69
2023/04/02 00:55:22;;;;;;;6.13;2.40;;;3.20;99.90;;;;;;5071363;28;20080;-70
2023/04/02 00:57:50;;;;;;;4.10;1.85;;;3.20;99.90;;;;;;5075007;28;20036;-69
2023/04/02 01:00:36;;;;;;;6.78;2.50;;;3.10;99.90;;;;;;5070701;28;20182;-69
2023/04/02 01:03:17;;;;;;;6.68;2.58;;;3.20;99.90;;;;;;5082836;28;20071;-69
2023/04/02 01:06:00;;;;;;;6.93;2.40;;;3.10;99.90;;;;;;5053930;28;20049;-69
2023/04/02 01:08:35;;;;;;;7.35;2.42;;;3.10;99.90;;;;;;5075523;28;20518;-69
2023/04/02 01:11:12;;;;;;;5.00;2.10;;;3.10;99.90;;;;;;5077874;28;20429;-70
2023/04/02 01:14:03;;;;;;;3.95;2.20;;;3.00;99.90;;;;;;5073304;28;20044;-69
2023/04/02 01:16:54;;;;;;;3.17;2.10;;;3.00;99.90;;;;;;5053968;28;20071;-69
2023/04/02 01:19:51;;;;;;;3.88;2.03;;;3.00;99.90;;;;;;5070526;28;20121;-70
2023/04/02 01:22:41;;;;;;;7.15;2.67;;;2.90;99.90;;;;;;5086727;28;20048;-70
2023/04/02 01:25:07;;;;;;;7.72;2.45;;;2.90;99.90;;;;;;5082377;28;20502;-69
2023/04/02 01:27:50;;;;;;;6.03;2.30;;;2.90;99.90;;;;;;5087053;28;20040;-70
2023/04/02 01:30:17;;;;;;;6.05;2.20;;;2.90;99.90;;;;;;5084907;28;20064;-69
2023/04/02 01:32:43;;;;;;;4.45;2.20;;;2.90;99.90;;;;;;5045359;28;20051;-69
2023/04/02 01:35:10;;;;;;;5.15;2.17;;;2.80;99.90;;;;;;5090505;28;20043;-70
2023/04/02 01:38:02;;;;;;;;;;;2.80;99.90;;;;;;5083668;28;20499;-70
2023/04/02 01:40:33;;;;;;;5.28;2.22;;;2.80;99.90;;;;;;5071892;28;19916;-69
2023/04/02 01:43:07;;;;;;;5.78;1.92;;;2.80;99.90;;;;;;5085854;28;20507;-69
2023/04/02 01:45:33;;;;;;;4.35;1.80;;;2.70;99.90;;;;;;5085391;28;20094;-69
2023/04/02 01:48:04;;;;;;;4.05;1.83;;;2.70;99.90;;;;;;5070065;28;20051;-69
2023/04/02 01:50:35;;;;;;;4.38;1.83;;;2.70;99.90;;;;;;5074984;28;20491;-69
2023/04/02 01:53:04;;;;;;;7.72;2.40;;;2.60;99.90;;;;;;5079507;28;20045;-69
2023/04/02 01:55:47;;;;;;;5.38;1.80;;;2.60;99.90;;;;;;5058065;28;20448;-70
2023/04/02 01:58:22;;;;;;;3.13;1.80;;;2.60;99.90;;;;;;5088832;28;20043;-69
2023/04/02 02:01:00;;;;;;;5.45;1.70;;;2.60;99.90;;;;;;5088099;28;20051;-69
2023/04/02 02:03:26;;;;;;;5.68;2.08;;;2.50;99.90;;;;;;5083357;28;20063;-70
2023/04/02 02:05:53;;;;;;;4.55;1.90;;;2.50;99.90;;;;;;5073675;28;20063;-69
2023/04/02 02:08:37;;;;;;;4.35;1.63;;;2.50;99.90;;;;;;5055089;28;20108;-69
2023/04/02 02:11:04;;;;;;;5.25;1.65;;;2.50;99.90;;;;;;5081411;28;20044;-70
2023/04/02 02:13:31;;;;;;;4.25;1.80;;;2.50;99.90;;;;;;5077807;28;20427;-69
2023/04/02 02:16:01;;;;;;;4.55;1.90;;;2.40;99.90;;;;;;5070912;28;20072;-69
2023/04/02 02:18:28;;;;;;;6.05;1.70;;;2.40;99.90;;;;;;5083897;28;20067;-70
2023/04/02 02:20:56;;;;;;;;;;;2.40;99.90;;;;;;5076311;28;20826;-70
2023/04/02 02:23:22;;;;;;;;;;;2.30;99.90;;;;;;5091133;28;20026;-70
2023/04/02 02:25:48;;;;;;;3.53;1.33;;;2.40;99.90;;;;;;5073846;28;20311;-69
2023/04/02 02:28:26;;;;;;;3.65;1.50;;;2.30;99.90;;;;;;5072216;28;20070;-69
2023/04/02 02:31:03;;;;;;;2.13;1.30;;;2.30;99.90;;;;;;5070162;28;20053;-69
2023/04/02 02:33:35;;;;;;;4.65;1.80;;;2.30;99.90;;;;;;5069786;28;20135;-69
2023/04/02 02:36:21;;;;;;;4.53;1.65;;;2.30;99.90;;;;;;5054019;28;20063;-69
2023/04/02 02:38:56;;;;;;;5.43;1.40;;;2.30;99.90;;;;;;5053471;28;20044;-69
2023/04/02 02:41:32;;;;;;;4.47;1.67;;;2.20;99.90;;;;;;5069854;28;20041;-69
2023/04/02 02:44:04;;;;;;;3.10;1.70;;;2.20;99.90;;;;;;5069635;28;20049;-69
2023/04/02 02:46:32;;;;;;;5.57;1.58;;;2.20;99.90;;;;;;5069683;28;20060;-69
2023/04/02 02:49:00;;;;;;;4.55;1.40;;;2.20;99.90;;;;;;5069379;28;20090;-69
2023/04/02 02:51:49;;;;;;;3.92;1.42;;;2.20;99.90;;;;;;5069322;28;20580;-69
2023/04/02 02:54:18;;;;;;;4.93;1.40;;;2.20;99.90;;;;;;5069506;28;20044;-69
2023/04/02 02:56:49;;;;;;;4.85;1.50;;;2.10;99.90;;;;;;5069593;28;20083;-69
2023/04/02 02:59:16;;;;;;;5.25;1.25;;;2.10;99.90;;;;;;5069177;28;20052;-69
2023/04/02 03:01:43;;;;;;;2.72;1.55;;;2.10;99.90;;;;;;5069231;28;20068;-69
2023/04/02 03:04:08;;;;;;;;;;;2.10;99.90;;;;;;5069591;28;20052;-69
2023/04/02 03:06:35;;;;;;;6.28;1.90;;;2.00;99.90;;;;;;5085390;28;20434;-69
2023/04/02 03:09:04;;;;;;;5.05;1.58;;;2.00;99.90;;;;;;5085872;28;20071;-69
2023/04/02 03:11:44;;;;;;;4.53;1.50;;;2.00;99.90;;;;;;5062127;28;20071;-69
2023/04/02 03:14:36;;;;;;;4.13;1.20;;;2.00;99.90;;;;;;5072727;28;20484;-69
2023/04/02 03:17:18;;;;;;;4.57;1.58;;;1.90;99.90;;;;;;5060845;28;20100;-69
2023/04/02 03:19:54;;;;;;;3.20;1.58;;;1.90;99.90;;;;;;5062786;28;20167;-69
2023/04/02 03:22:26;;;;;;;2.77;1.10;;;1.90;99.90;;;;;;5074312;28;20476;-69
2023/04/02 03:25:00;;;;;;;3.83;1.30;;;1.90;99.90;;;;;;5083476;28;20040;-69
2023/04/02 03:27:37;;;;;;;3.20;1.30;;;1.90;99.90;;;;;;5069715;28;20056;-69
2023/04/02 03:30:17;;;;;;;4.80;1.50;;;1.90;99.90;;;;;;5072241;28;20127;-69
2023/04/02 03:32:46;;;;;;;5.95;1.83;;;1.90;99.90;;;;;;5072830;28;20044;-69
2023/04/02 03:35:30;;;;;;;6.82;1.67;;;1.90;99.90;;;;;;5089645;28;20044;-69
2023/04/02 03:38:19;;;;;;;4.50;1.63;;;1.90;99.90;;;;;;5089526;28;20116;-69
2023/04/02 03:40:52;;;;;;;7.55;1.95;;;1.90;99.90;;;;;;5089470;28;20359;-69
2023/04/02 03:43:25;;;;;;;5.30;1.63;;;1.90;99.90;;;;;;5078297;28;20040;-69
2023/04/02 03:45:58;;;;;;;4.43;1.35;;;1.90;99.90;;;;;;5052848;28;20094;-69
2023/04/02 03:48:36;;;;;;;3.97;1.30;;;1.90;99.90;;;;;;5069316;28;20127;-70
2023/04/02 03:51:11;;;;;;;3.75;1.30;;;1.80;99.90;;;;;;5069195;28;20048;-69
2023/04/02 03:53:36;;;;;;;4.90;1.50;;;1.80;99.90;;;;;;5069216;28;20105;-69
2023/04/02 03:56:05;;;;;;;5.25;1.75;;;1.80;99.90;;;;;;5068967;28;20056;-69
2023/04/02 03:58:58;;;;;;;6.53;1.67;;;1.80;99.90;;;;;;5069147;28;20120;-69
2023/04/02 04:01:36;;;;;;;5.50;1.58;;;1.80;99.90;;;;;;5069493;28;20055;-69
2023/04/02 04:04:17;;;;;;;7.50;2.17;;;1.80;99.90;;;;;;5052228;28;20057;-69
2023/04/02 04:06:47;;;;;;;2.88;1.13;;;1.80;99.90;;;;;;5068978;28;20122;-69
2023/04/02 04:09:23;;;;;;;3.60;1.15;;;1.80;99.90;;;;;;5069327;28;20041;-70
2023/04/02 04:12:16;;;;;;;5.30;1.33;;;1.80;99.90;;;;;;5084507;28;20044;-70
2023/04/02 04:14:49;;;;;;;4.72;1.40;;;1.80;99.90;;;;;;5069476;28;20071;-70
2023/04/02 04:17:33;;;;;;;4.55;1.35;;;1.80;99.90;;;;;;5084733;28;20753;-70
2023/04/02 04:20:21;;;;;;;3.13;1.35;;;1.80;99.90;;;;;;5087124;28;20044;-70
2023/04/02 04:22:54;;;;;;;5.57;1.20;;;1.70;99.90;;;;;;5072655;28;20059;-70
2023/04/02 04:25:28;;;;;;;3.85;1.27;;;1.80;99.90;;;;;;5072892;28;20066;-70
2023/04/02 04:28:04;;;;;;;5.95;1.67;;;1.70;99.90;;;;;;5055689;28;20127;-70
2023/04/02 04:30:41;;;;;;;4.28;1.10;;;1.70;99.90;;;;;;5056148;28;20044;-70
2023/04/02 04:33:24;;;;;;;6.68;1.42;;;1.70;99.90;;;;;;5072657;28;20048;-69
2023/04/02 04:36:01;;;;;;;6.72;1.60;;;1.70;99.90;;;;;;5073030;28;20044;-70
2023/04/02 04:38:33;;;;;;;5.35;1.10;;;1.70;99.90;;;;;;5072346;28;20079;-70
2023/04/02 04:41:20;;;;;;;3.15;1.10;;;1.70;99.90;;;;;;5055605;28;20127;-69
2023/04/02 04:43:48;;;;;;;3.33;1.20;;;1.70;99.90;;;;;;5072500;28;20044;-70
2023/04/02 04:46:24;;;;;;;4.20;1.13;;;1.70;99.90;;;;;;5071970;28;20056;-70
2023/04/02 04:49:16;;;;;;;3.55;1.00;;;1.70;99.90;;;;;;5072003;28;20072;-70
2023/04/02 04:51:46;;;;;;;6.00;1.58;;;1.70;99.90;;;;;;5072464;28;20109;-70
2023/04/02 04:54:14;;;;;;;7.32;1.63;;;1.70;99.90;;;;;;5071732;28;20047;-70
2023/04/02 04:56:45;;;;;;;7.43;1.50;;;1.70;99.90;;;;;;5074450;28;20043;-70
2023/04/02 04:59:24;;;;;;;3.67;1.20;;;1.70;99.90;;;;;;5091938;28;20046;-69
2023/04/02 05:02:16;;;;;;;2.83;0.90;;;1.70;99.90;;;;;;5086892;28;20032;-68
2023/04/02 05:04:47;;;;;;;2.55;1.20;;;1.70;99.90;;;;;;5071848;28;20041;-69
2023/04/02 05:07:15;;;;;;;3.38;1.10;;;1.60;99.90;;;;;;5072980;28;20132;-70
2023/04/02 05:10:03;;;;;;;5.70;1.15;;;1.60;99.90;;;;;;5085158;28;20044;-69
2023/04/02 05:12:34;;;;;;;;;;;1.70;99.90;;;;;;5083712;28;20526;-69
2023/04/02 05:15:18;;;;;;;2.75;1.10;;;1.70;99.90;;;;;;5059310;28;19923;-70
2023/04/02 05:17:56;;;;;;;3.20;1.02;;;1.70;99.90;;;;;;5078936;28;20044;-70
2023/04/02 05:20:31;;;;;;;4.65;1.15;;;1.70;99.90;;;;;;5072035;28;20102;-71
2023/04/02 05:23:11;;;;;;;4.65;1.30;;;1.70;99.90;;;;;;5075121;28;20050;-71
2023/04/02 05:25:49;;;;;;;5.35;1.55;;;1.70;99.90;;;;;;5083823;28;20388;-72
2023/04/02 05:28:32;;;;;;;6.30;1.20;;;1.80;99.90;;;;;;5070798;28;20052;-70
2023/04/02 05:31:07;;;;;;;3.97;1.52;;;1.80;99.90;;;;;;5081677;28;20079;-70
2023/04/02 05:33:35;;;;;;;4.13;0.98;;;1.80;99.90;;;;;;5091301;28;20123;-71
2023/04/02 05:36:04;;;;;;;3.58;1.20;;;1.80;99.90;;;;;;5091220;28;20039;-71
2023/04/02 05:38:34;;;;;;;3.60;1.13;;;1.90;99.90;;;;;;5079802;28;20051;-70
2023/04/02 05:41:22;;;;;;;4.93;1.40;;;1.90;99.90;;;;;;5080460;28;20052;-70
2023/04/02 05:43:53;;;;;;;4.70;1.25;;;2.00;99.90;;;;;;5076209;28;20083;-71
2023/04/02 05:46:26;;;;;;;4.28;1.10;;;2.00;99.90;;;;;;5074563;28;20164;-71
2023/04/02 05:48:58;;;;;;;3.33;1.35;;;2.00;99.90;;;;;;5080561;28;20076;-71
2023/04/02 05:51:33;;;;;;;4.40;1.38;;;2.10;99.90;;;;;;5063297;28;20075;-71
2023/04/02 05:54:03;;;;;;;3.72;1.20;;;2.10;99.90;;;;;;5073313;28;20135;-70
2023/04/02 05:56:45;;;;;;;3.38;1.13;;;2.20;99.90;;;;;;5069011;28;20040;-70
2023/04/02 05:59:17;;;;;;;4.60;1.15;;;2.20;99.90;;;;;;5081668;28;20045;-71
2023/04/02 06:01:52;;;;;;;6.15;1.20;;;2.20;99.90;;;;;;5064346;28;20046;-70
2023/04/02 06:04:20;;;;;;;3.70;1.25;;;2.20;99.90;;;;;;5080093;28;20075;-70
2023/04/02 06:07:08;;;;;;;4.45;1.70;;;2.20;99.90;;;;;;5075105;28;20078;-70
2023/04/02 06:09:37;;;;;;;3.90;1.00;;;2.30;99.90;;;;;;5079177;28;20126;-71
2023/04/02 06:12:23;;;;;;;5.30;1.25;;;2.30;99.90;;;;;;5075112;28;20068;-70
2023/04/02 06:14:49;;;;;;;4.13;1.20;;;2.40;99.90;;;;;;5077144;28;20075;-71
2023/04/02 06:17:17;;;;;;;5.22;1.40;;;2.40;99.90;;;;;;5058912;28;20075;-71
2023/04/02 06:19:44;;;;;;;3.15;1.00;;;2.50;99.90;;;;;;5061533;28;20094;-70
2023/04/02 06:22:37;;;;;;;3.35;1.20;;;2.50;99.90;;;;;;5073990;28;20040;-71
2023/04/02 06:25:21;;;;;;;3.80;1.05;;;2.60;99.90;;;;;;5074688;28;20048;-71
2023/04/02 06:27:49;;;;;;;3.72;1.15;;;2.60;99.90;;;;;;5071155;28;20041;-71
2023/04/02 06:30:37;;;;;;;3.78;1.30;;;2.70;99.90;;;;;;5075774;28;20062;-73
2023/04/02 06:33:04;;;;;;;3.22;1.08;;;2.80;99.90;;;;;;5057472;28;20664;-73
2023/04/02 06:35:30;;;;;;;;;;;2.90;99.90;;;;;;5076872;28;20040;-70
2023/04/02 06:37:59;;;;;;;5.80;1.20;;;2.90;99.90;;;;;;5070106;28;19920;-71
2023/04/02 06:40:53;;;;;;;6.57;1.10;;;3.00;99.90;;;;;;5072950;28;20510;-71
2023/04/02 06:43:32;;;;;;;2.30;0.90;;;3.00;99.90;;;;;;5070659;28;20515;-72
2023/04/02 06:46:01;;;;;;;3.83;1.20;;;3.00;99.90;;;;;;5069776;28;20048;-71
2023/04/02 06:48:28;;;;;;;3.60;1.10;;;3.00;99.90;;;;;;5058308;28;20117;-71
2023/04/02 06:51:02;;;;;;;4.47;1.17;;;3.10;99.90;;;;;;5068922;28;20080;-72
2023/04/02 06:53:36;;;;;;;3.40;1.02;;;3.40;99.90;;;;;;5072278;28;20194;-70
2023/04/02 06:56:22;;;;;;;3.58;1.10;;;3.60;99.90;;;;;;5069285;28;20143;-70
2023/04/02 06:58:47;;;;;;;3.20;1.08;;;3.80;98.90;;;;;;5069978;28;20055;-70
2023/04/02 07:01:21;;;;;;;3.33;1.08;;;3.90;92.90;;;;;;5071042;28;20046;-70
2023/04/02 07:03:47;;;;;;;5.50;1.38;;;4.10;67.80;;;;;;5070695;28;20063;-71
2023/04/02 07:06:19;;;;;;;3.38;1.17;;;4.30;58.00;;;;;;5057963;28;20049;-71
2023/04/02 07:08:45;;;;;;;2.60;1.10;;;4.50;15.20;;;;;;5071619;28;20043;-71
2023/04/02 07:11:15;;;;;;;5.95;1.17;;;4.80;22.40;;;;;;5073350;28;20155;-71
2023/04/02 07:13:42;;;;;;;3.13;1.00;;;4.90;9.10;;;;;;5072596;28;20502;-71
2023/04/02 07:16:16;;;;;;;3.03;1.00;;;5.00;1.00;;;;;;5071387;28;20043;-70
2023/04/02 07:18:42;;;;;;;4.32;1.30;;;5.00;1.00;;;;;;5072339;28;20071;-71
2023/04/02 07:21:08;;;;;;;3.10;1.15;;;4.80;1.00;;;;;;5071080;28;20035;-72
2023/04/02 07:23:33;;;;;;;2.10;0.90;;;4.50;1.00;;;;;;5072247;28;20628;-71
2023/04/02 07:26:01;;;;;;;1.45;0.80;;;4.30;1.00;;;;;;5071062;28;20063;-71
2023/04/02 07:28:27;;;;;;;4.05;1.10;;;4.40;14.70;;;;;;5071707;28;20098;-71
2023/04/02 07:30:53;;;;;;;4.30;1.40;;;4.70;41.60;;;;;;5077558;28;20612;-71
2023/04/02 07:33:20;;;;;;;;;;;4.80;13.70;;;;;;5072448;28;20559;-70
2023/04/02 07:35:47;;;;;;;3.20;1.10;;;4.80;1.00;;;;;;5069787;28;20404;-71
2023/04/02 07:38:13;;;;;;;4.47;1.10;;;4.90;1.00;;;;;;5075280;28;20052;-71
2023/04/02 07:40:39;;;;;;;5.63;1.10;;;4.90;1.00;;;;;;5071818;28;20395;-69
2023/04/02 07:43:05;;;;;;;5.05;1.25;;;4.70;1.00;;;;;;5058074;28;20064;-70
2023/04/02 07:45:31;;;;;;;;;;;4.70;1.00;;;;;;5075747;28;20438;-70
2023/04/02 07:47:57;;;;;;;3.05;1.10;;;4.70;1.00;;;;;;5057188;28;19973;-71
2023/04/02 07:50:23;;;;;;;4.57;0.95;;;4.60;1.00;;;;;;5079273;28;20502;-71
2023/04/02 07:52:49;;;;;;;2.95;0.88;;;4.70;1.00;;;;;;5074929;28;20071;-69
2023/04/02 07:55:15;;;;;;;3.63;1.05;;;5.00;5.70;;;;;;5073824;28;20101;-70
2023/04/02 07:57:51;;;;;;;5.50;1.35;;;5.10;1.00;;;;;;5076924;28;20062;-70
2023/04/02 08:00:18;;;;;;;4.07;1.02;;;5.10;1.00;;;;;;5087999;28;20233;-70
2023/04/02 08:02:43;;;;;;;4.28;1.10;;;5.00;1.00;;;;;;5076965;28;20036;-70
2023/04/02 08:05:10;;;;;;;2.17;1.00;;;5.10;1.00;;;;;;5076689;28;20048;-71
2023/04/02 08:07:36;;;;;;;;;;;5.30;1.00;;;;;;5076355;28;20459;-70
2023/04/02 08:10:03;;;;;;;3.10;1.15;;;5.40;1.00;;;;;;5084540;28;19915;-71
2023/04/02 08:12:28;;;;;;;4.80;1.33;;;5.30;1.00;;;;;;5076193;28;20040;-70
2023/04/02 08:14:54;;;;;;;4.15;1.02;;;5.30;1.00;;;;;;5080581;28;20049;-71
2023/04/02 08:17:21;;;;;;;2.90;1.00;;;5.40;1.00;;;;;;5073028;28;20086;-71
2023/04/02 08:19:47;;;;;;;3.45;1.00;;;5.50;1.00;;;;;;5072449;28;20102;-70
2023/04/02 08:22:13;;;;;;;2.08;0.93;;;5.50;1.00;;;;;;5056257;28;20036;-70
2023/04/02 08:24:39;;;;;;;5.55;1.33;;;5.60;1.00;;;;;;5071279;28;20040;-70
2023/04/02 08:27:05;;;;;;;2.50;0.90;;;5.80;1.00;;;;;;5071744;28;20105;-70
2023/04/02 08:29:31;;;;;;;3.05;1.00;;;6.10;1.00;;;;;;5071884;28;20508;-70
2023/04/02 08:32:00;;;;;;;3.35;1.00;;;6.40;1.00;;;;;;5071466;28;20043;-70
2023/04/02 08:34:27;;;;;;;3.30;1.02;;;6.70;1.00;;;;;;5071505;28;20508;-70
2023/04/02 08:36:57;;;;;;;2.63;0.90;;;6.80;1.00;;;;;;5071553;28;20074;-69
2023/04/02 08:39:25;;;;;;;3.15;0.88;;;6.90;1.00;;;;;;5071355;28;20487;-69
2023/04/02 08:42:05;;;;;;;4.13;1.33;;;6.90;1.00;;;;;;5071307;28;20076;-70
2023/04/02 08:44:53;;;;;;;5.78;2.28;;;6.90;1.00;;;;;;5071683;28;20492;-71
2023/04/02 08:47:22;;;;;;;4.38;1.05;;;7.00;1.00;;;;;;5070841;28;20048;-70
2023/04/02 08:50:00;;;;;;;3.88;1.10;;;7.10;1.00;;;;;;5070896;28;20504;-71
2023/04/02 08:52:32;;;;;;;3.53;0.82;;;7.30;1.00;;;;;;5070248;28;20153;-71
2023/04/02 08:55:00;;;;;;;3.00;0.98;;;7.60;1.00;;;;;;5069247;28;20115;-71
2023/04/02 08:57:51;;;;;;;1.73;0.70;;;7.80;99.90;;;;;;5069950;28;20123;-74
2023/04/02 09:00:32;;;;;;;2.83;0.90;;;8.00;99.90;;;;;;5070359;28;20040;-74
2023/04/02 09:03:13;;;;;;;3.28;0.98;;;8.10;99.90;;;;;;5065424;28;20553;-74
2023/04/02 09:05:42;;;;;;;4.00;1.00;;;8.10;99.90;;;;;;5059859;28;20043;-74
2023/04/02 09:08:23;;;;;;;2.95;1.08;;;8.00;99.90;;;;;;5091350;28;20430;-74
2023/04/02 09:11:06;;;;;;;3.70;1.17;;;8.10;99.90;;;;;;5077524;28;20032;-73
2023/04/02 09:13:36;;;;;;;3.03;1.13;;;8.00;99.90;;;;;;5076783;28;20411;-74
2023/04/02 09:16:08;;;;;;;5.15;1.23;;;7.90;99.90;;;;;;5083225;28;20079;-75
2023/04/02 09:18:35;;;;;;;3.58;0.88;;;7.80;99.90;;;;;;5071050;28;20044;-75
2023/04/02 09:21:27;;;;;;;4.38;1.25;;;8.10;99.90;;;;;;5091056;28;20044;-74
2023/04/02 09:23:53;;;;;;;3.42;1.05;;;8.10;99.90;;;;;;5086787;28;20503;-74
2023/04/02 09:26:28;;;;;;;4.07;0.80;;;8.00;99.90;;;;;;5074015;28;20204;-74
2023/04/02 09:29:27;;;;;;;5.25;1.00;;;8.10;99.90;;;;;;5090617;28;20083;-74
2023/04/02 09:32:15;;;;;;;3.40;1.10;;;8.00;99.90;;;;;;5088673;28;20060;-74
2023/04/02 09:34:40;;;;;;;2.55;1.17;;;8.30;99.90;;;;;;5077499;28;20044;-74
2023/04/02 09:37:13;;;;;;;2.75;0.98;;;8.50;99.90;;;;;;5090338;28;20449;-75
2023/04/02 09:39:39;;;;;;;2.30;0.90;;;8.60;99.90;;;;;;5077755;28;20032;-74
2023/04/02 09:42:06;;;;;;;;;;;8.80;99.90;;;;;;5078809;28;20442;-73
2023/04/02 09:44:32;;;;;;;3.10;0.90;;;8.80;99.90;;;;;;5053644;28;19945;-74
2023/04/02 09:47:03;;;;;;;2.95;1.20;;;8.90;99.90;;;;;;5080502;28;20110;-74
2023/04/02 09:49:34;;;;;;;2.13;1.05;;;9.00;99.90;;;;;;5090063;28;20048;-74
2023/04/02 09:52:39;;;;;;;3.22;0.70;;;9.00;99.90;;;;;;5090478;28;20510;-74
2023/04/02 09:55:27;;;;;;;3.78;0.93;;;9.00;99.90;;;;;;5071942;28;20389;-74
2023/04/02 09:58:13;;;;;;;2.08;0.80;;;9.00;99.90;;;;;;5045955;28;20055;-73
2023/04/02 10:00:49;;;;;;;2.97;0.90;;;8.80;99.90;;;;;;5077452;28;20044;-74
2023/04/02 10:03:25;;;;;;;3.92;1.10;;;8.70;99.90;;;;;;5069635;28;20152;-73
2023/04/02 10:06:23;;;;;;;3.93;1.10;;;8.80;99.90;;;;;;5053491;28;20043;-74
2023/04/02 10:08:50;;;;;;;2.95;0.93;;;8.80;99.90;;;;;;5072216;28;20119;-73
2023/04/02 10:11:27;;;;;;;;;;;9.00;99.90;;;;;;5070915;28;20047;-73
2023/04/02 10:14:03;;;;;;;3.38;0.90;;;8.90;99.90;;;;;;5069718;28;20291;-73
2023/04/02 10:16:54;;;;;;;3.15;0.98;;;8.90;99.90;;;;;;5080594;28;20059;-73
2023/04/02 10:19:42;;;;;;;3.67;0.70;;;9.10;99.90;;;;;;5087342;28;20082;-72
2023/04/02 10:22:15;;;;;;;2.45;0.85;;;9.10;99.90;;;;;;5089878;28;20042;-73
2023/04/02 10:24:41;;;;;;;3.28;0.80;;;9.10;99.90;;;;;;5089862;28;20048;-74
2023/04/02 10:27:21;;;;;;;2.25;0.80;;;9.20;99.90;;;;;;5091299;28;20102;-73
2023/04/02 10:30:04;;;;;;;3.80;0.82;;;9.20;99.90;;;;;;5089780;28;20090;-74
2023/04/02 10:32:53;;;;;;;2.40;0.90;;;9.20;99.90;;;;;;5090157;28;20050;-74
2023/04/02 10:35:43;;;;;;;2.15;0.70;;;9.50;99.90;;;;;;5089848;28;20051;-73
2023/04/02 10:38:37;;;;;;;1.67;0.60;;;9.70;99.90;;;;;;5075787;28;20041;-73
2023/04/02 10:41:09;;;;;;;2.90;0.77;;;9.70;99.90;;;;;;5069407;28;20036;-73
2023/04/02 10:43:59;;;;;;;4.43;0.85;;;9.70;99.90;;;;;;5069219;28;20044;-74
2023/04/02 10:46:43;;;;;;;2.47;0.80;;;9.50;99.90;;;;;;5058509;28;20079;-74
2023/04/02 10:49:30;;;;;;;3.72;0.80;;;9.60;99.90;;;;;;5072443;28;20411;-74
2023/04/02 10:51:56;;;;;;;3.70;0.82;;;9.80;99.90;;;;;;5082394;28;20051;-74
2023/04/02 10:54:22;;;;;;;2.00;0.77;;;10.00;99.90;;;;;;5073838;28;20044;-75
2023/04/02 10:56:51;;;;;;;2.08;0.63;;;10.30;99.90;;;;;;5075136;28;20066;-75
2023/04/02 10:59:26;;;;;;;2.17;0.70;;;10.60;99.90;;;;;;5070349;28;20373;-74
2023/04/02 11:01:56;;;;;;;2.05;0.90;;;10.50;99.90;;;;;;5075356;28;20036;-74
2023/04/02 11:04:30;;;;;;;1.65;0.60;;;10.30;99.90;;;;;;5086385;28;20099;-74
2023/04/02 11:07:06;;;;;;;2.33;0.60;;;10.40;99.90;;;;;;5075500;28;20052;-73
2023/04/02 11:09:37;;;;;;;0.70;0.30;;;10.70;99.90;;;;;;5069643;28;20114;-72
2023/04/02 11:12:05;;;;;;;2.28;0.70;;;11.20;99.90;;;;;;5075990;28;20052;-72
2023/04/02 11:14:32;;;;;;;2.30;0.50;;;11.30;99.90;;;;;;5069298;28;20150;-72
2023/04/02 11:17:16;;;;;;;1.27;0.60;;;11.50;99.90;;;;;;5071805;28;20033;-73
2023/04/02 11:19:43;;;;;;;2.95;0.70;;;11.50;99.90;;;;;;5071941;28;20033;-73
2023/04/02 11:22:16;;;;;;;2.03;0.60;;;11.30;99.90;;;;;;5073706;28;20028;-72
2023/04/02 11:24:47;;;;;;;2.10;0.60;;;11.20;99.90;;;;;;5080876;28;20405;-73
2023/04/02 11:27:29;;;;;;;2.33;0.65;;;11.10;99.90;;;;;;5057069;28;20043;-73
2023/04/02 11:30:23;;;;;;;1.63;0.60;;;11.10;99.90;;;;;;5059775;28;20494;-72
2023/04/02 11:32:50;;;;;;;2.88;0.70;;;11.20;99.90;;;;;;5062821;28;20040;-72
2023/04/02 11:35:34;;;;;;;2.90;0.63;;;11.50;99.90;;;;;;5065101;28;20059;-72
2023/04/02 11:38:08;;;;;;;1.65;0.57;;;11.80;99.90;;;;;;5061478;28;20033;-72
2023/04/02 11:40:57;;;;;;;2.92;0.57;;;11.70;93.80;;;;;;5080115;28;20090;-74
2023/04/02 11:43:32;;;;;;;2.45;0.73;;;11.80;96.90;;;;;;5077185;28;20049;-75
2023/04/02 11:46:00;;;;;;;1.15;0.47;;;12.20;97.50;;;;;;5075018;28;20055;-73
2023/04/02 11:48:27;;;;;;;2.92;0.80;;;12.50;94.80;;;;;;5079936;28;20084;-70
2023/04/02 11:50:53;;;;;;;1.15;0.60;;;11.90;77.30;;;;;;5088283;28;20097;-72
2023/04/02 11:53:30;;;;;;;2.42;0.65;;;11.60;73.90;;;;;;5071970;28;20036;-74
2023/04/02 11:55:55;;;;;;;;;;;11.80;96.90;;;;;;5097316;28;20044;-72
2023/04/02 11:58:27;;;;;;;3.17;0.80;;;12.10;99.90;;;;;;5081150;28;19917;-74
2023/04/02 12:01:17;;;;;;;2.03;0.85;;;12.00;93.10;;;;;;5080575;28;20376;-72
2023/04/02 12:03:51;;;;;;;2.08;0.70;;;11.80;90.00;;;;;;5081954;28;20523;-72
2023/04/02 12:06:17;;;;;;;1.30;0.57;;;11.90;98.90;;;;;;5076250;28;20091;-71
2023/04/02 12:09:15;;;;;;;1.63;0.63;;;11.70;91.20;;;;;;5072424;28;20076;-71
2023/04/02 12:11:41;;;;;;;;;;;11.90;96.70;;;;;;5077706;28;20048;-73
2023/04/02 12:14:41;;;;;;;2.95;0.85;;;12.10;92.90;;;;;;5055587;28;19928;-73
2023/04/02 12:17:29;;;;;;;0.90;0.38;;;12.10;81.70;;;;;;5072437;28;20059;-74
2023/04/02 12:20:19;;;;;;;2.67;0.70;;;12.10;72.10;;;;;;5081298;28;20032;-73
2023/04/02 12:22:56;;;;;;;2.08;0.68;;;12.40;95.20;;;;;;5074553;28;20040;-73
2023/04/02 12:25:55;;;;;;;1.20;0.40;;;12.40;76.90;;;;;;5074069;28;20096;-74
2023/04/02 12:28:22;;;;;;;2.83;0.65;;;12.40;52.30;;;;;;5079469;28;20036;-73
2023/04/02 12:30:50;;;;;;;2.33;0.60;;;12.30;47.70;;;;;;5084282;28;20040;-72
2023/04/02 12:33:26;;;;;;;1.58;0.50;;;12.10;79.70;;;;;;5075868;28;20032;-72
2023/04/02 12:35:57;;;;;;;3.25;0.60;;;11.80;54.80;;;;;;5074464;28;20055;-72
2023/04/02 12:38:26;;;;;;;2.80;0.70;;;11.80;70.20;;;;;;5072145;28;20040;-71
2023/04/02 12:40:57;;;;;;;1.50;0.60;;;11.80;85.90;;;;;;5060103;28;20054;-72
2023/04/02 12:43:30;;;;;;;1.73;0.50;;;12.00;83.10;;;;;;5077437;28;20120;-71
2023/04/02 12:46:03;;;;;;;2.38;0.70;;;12.30;79.50;;;;;;5087962;28;20064;-71
2023/04/02 12:48:30;;;;;;;3.65;0.80;;;12.00;62.50;;;;;;5082354;28;20087;-71
2023/04/02 12:50:56;;;;;;;2.10;0.75;;;11.90;70.50;;;;;;5070823;28;20045;-72
2023/04/02 12:53:35;;;;;;;2.67;0.90;;;12.10;81.60;;;;;;5054393;28;20458;-72
2023/04/02 12:56:02;;;;;;;1.63;0.77;;;12.30;68.60;;;;;;5070229;28;20048;-73
2023/04/02 12:58:41;;;;;;;1.55;0.60;;;12.50;73.70;;;;;;5073540;28;20411;-73
2023/04/02 13:01:10;;;;;;;1.63;0.63;;;12.60;78.00;;;;;;5080170;28;20706;-73
2023/04/02 13:03:36;;;;;;;1.65;0.60;;;12.40;46.00;;;;;;5057026;28;20052;-72
2023/04/02 13:06:03;;;;;;;3.20;1.00;;;12.70;65.30;;;;;;5071894;28;20075;-72
2023/04/02 13:08:40;;;;;;;2.53;0.77;;;12.60;56.00;;;;;;5070068;28;20094;-72
2023/04/02 13:11:06;;;;;;;1.98;0.85;;;12.40;61.70;;;;;;5070875;28;20257;-72
2023/04/02 13:13:42;;;;;;;2.40;0.70;;;12.30;59.70;;;;;;5077953;28;20070;-72
2023/04/02 13:16:14;;;;;;;0.70;0.47;;;12.30;51.00;;;;;;5070157;28;20040;-72
2023/04/02 13:18:41;;;;;;;3.00;0.80;;;12.40;59.60;;;;;;5071189;28;20137;-72
2023/04/02 13:21:17;;;;;;;2.10;0.90;;;12.30;52.40;;;;;;5073335;28;20040;-70
2023/04/02 13:23:44;;;;;;;1.65;0.70;;;12.10;55.20;;;;;;5058803;28;20036;-71
2023/04/02 13:26:10;;;;;;;2.25;0.77;;;12.00;86.50;;;;;;5079475;28;20052;-70
2023/04/02 13:28:36;;;;;;;3.08;0.75;;;12.00;93.50;;;;;;5084588;28;20043;-70
2023/04/02 13:31:02;;;;;;;1.65;0.70;;;11.90;94.40;;;;;;5080008;28;20044;-70
2023/04/02 13:33:27;;;;;;;1.65;0.77;;;11.90;99.60;;;;;;5072957;28;20036;-71
2023/04/02 13:35:53;;;;;;;1.02;0.50;;;11.80;99.90;;;;;;5073649;28;20127;-71
2023/04/02 13:38:19;;;;;;;2.42;0.70;;;12.10;99.90;;;;;;5077227;28;20119;-70